createdAt,value
2019-01-12T00:00:20.566Z,17.87
2019-01-12T00:02:51.767Z,17.90
2019-01-12T00:05:22.937Z,17.13
2019-01-12T00:07:53.212Z,19.97
2019-01-12T00:10:24.375Z,18.73
2019-01-12T00:12:55.609Z,18.60
2019-01-12T00:15:25.892Z,23.57
2019-01-12T00:17:57.345Z,17.27
2019-01-12T00:20:28.567Z,18.97
2019-01-12T00:22:59.705Z,20.23
2019-01-12T00:25:30.847Z,18.87
2019-01-12T00:28:02.400Z,21.60
2019-01-12T00:30:33.649Z,18.57
2019-01-12T00:33:03.428Z,18.27
2019-01-12T00:35:35.616Z,22.17
2019-01-12T00:38:05.960Z,17.73
2019-01-12T00:40:38.326Z,21.07
2019-01-12T00:43:10.824Z,20.37
2019-01-12T00:45:41.066Z,14.63
2019-01-12T00:48:12.259Z,21.87
2019-01-12T00:50:43.505Z,18.83
2019-01-12T00:53:15.471Z,18.67
2019-01-12T00:55:47.969Z,19.20
2019-01-12T00:58:18.240Z,19.63
2019-01-12T01:00:49.299Z,19.13
2019-01-12T01:03:21.336Z,19.03
2019-01-12T01:05:54.374Z,18.13
2019-01-12T01:08:24.149Z,19.93
2019-01-12T01:10:55.308Z,18.93
2019-01-12T01:13:26.443Z,18.17
2019-01-12T01:15:57.585Z,17.57
2019-01-12T01:18:28.686Z,16.93
2019-01-12T01:21:00.141Z,18.13
2019-01-12T01:23:31.384Z,17.73
2019-01-12T01:26:05.094Z,18.70
2019-01-12T01:28:38.473Z,21.27
2019-01-12T01:31:10.025Z,20.53
2019-01-12T01:33:41.045Z,19.13
2019-01-12T01:36:12.105Z,18.77
2019-01-12T01:38:44.677Z,20.37
2019-01-12T01:41:18.663Z,21.97
2019-01-12T01:43:49.110Z,22.23
2019-01-12T01:46:20.312Z,18.43
2019-01-12T01:48:51.513Z,23.40
2019-01-12T01:51:23.065Z,19.37
2019-01-12T01:53:55.307Z,22.27
2019-01-12T01:56:25.562Z,21.77
2019-01-12T01:58:59.722Z,22.63
2019-01-12T02:01:30.133Z,20.23
2019-01-12T02:04:02.621Z,20.27
2019-01-12T02:06:34.321Z,23.73
2019-01-12T02:09:08.617Z,19.90
2019-01-12T02:11:39.785Z,22.43
2019-01-12T02:14:10.934Z,19.87
2019-01-12T02:16:43.246Z,17.33
2019-01-12T02:19:14.371Z,21.50
2019-01-12T02:21:45.522Z,21.53
2019-01-12T02:24:15.681Z,22.33
2019-01-12T02:26:49.266Z,20.70
2019-01-12T02:29:20.499Z,16.57
2019-01-12T02:31:51.638Z,18.90
2019-01-12T02:34:25.804Z,15.90
2019-01-12T02:36:56.078Z,21.13
2019-01-12T02:39:27.205Z,18.13
2019-01-12T02:41:58.380Z,18.57
2019-01-12T02:44:29.510Z,17.03
2019-01-12T02:47:00.674Z,15.77
2019-01-12T02:49:30.872Z,16.27
2019-01-12T02:52:02.051Z,15.60
2019-01-12T02:54:34.266Z,18.40
2019-01-12T02:57:04.653Z,15.90
2019-01-12T02:59:34.337Z,16.53
2019-01-12T03:02:07.263Z,19.07
2019-01-12T03:04:38.507Z,14.77
2019-01-12T03:07:10.591Z,13.50
2019-01-12T03:09:43.341Z,21.17
2019-01-12T03:12:14.521Z,16.33
2019-01-12T03:14:46.495Z,15.87
2019-01-12T03:17:17.593Z,16.47
2019-01-12T03:19:49.478Z,16.73
2019-01-12T03:22:21.040Z,14.00
2019-01-12T03:24:54.414Z,16.70
2019-01-12T03:27:27.173Z,21.80
2019-01-12T03:29:58.233Z,12.90
2019-01-12T03:32:30.327Z,13.13
2019-01-12T03:35:00.481Z,17.30
2019-01-12T03:37:31.539Z,14.57
2019-01-12T03:40:01.250Z,14.83
2019-01-12T03:42:32.433Z,13.93
2019-01-12T03:45:02.617Z,15.93
2019-01-12T03:47:33.641Z,14.27
2019-01-12T03:50:06.034Z,13.60
2019-01-12T03:52:37.581Z,15.43
2019-01-12T03:55:08.071Z,14.10
2019-01-12T03:57:38.305Z,12.43
2019-01-12T04:00:19.802Z,12.80
2019-01-12T04:02:51.260Z,11.20
2019-01-12T04:05:22.613Z,13.97
2019-01-12T04:07:54.349Z,14.57
2019-01-12T04:10:25.501Z,15.37
2019-01-12T04:12:55.175Z,15.57
2019-01-12T04:15:25.448Z,20.43
2019-01-12T04:17:56.585Z,23.90
2019-01-12T04:20:27.216Z,15.00
2019-01-12T04:22:58.258Z,15.87
2019-01-12T04:25:33.851Z,18.90
2019-01-12T04:28:01.286Z,19.13
2019-01-12T04:30:31.548Z,16.90
2019-01-12T04:33:01.659Z,16.87
2019-01-12T04:35:32.140Z,14.83
2019-01-12T04:38:03.411Z,16.67
2019-01-12T04:40:34.550Z,27.53
2019-01-12T04:43:05.695Z,20.70
2019-01-12T04:45:37.841Z,18.03
2019-01-12T04:48:08.037Z,21.23
2019-01-12T04:50:40.518Z,22.07
2019-01-12T04:53:11.165Z,28.57
2019-01-12T04:55:42.386Z,28.33
2019-01-12T04:58:13.837Z,25.03
2019-01-12T05:00:44.242Z,25.27
2019-01-12T05:03:14.366Z,23.17
2019-01-12T05:05:46.477Z,21.30
2019-01-12T05:08:16.200Z,24.83
2019-01-12T05:10:50.069Z,21.83
2019-01-12T05:13:22.246Z,24.27
2019-01-12T05:15:52.539Z,32.00
2019-01-12T05:18:24.174Z,27.87
2019-01-12T05:20:55.352Z,21.60
2019-01-12T05:23:26.487Z,24.03
2019-01-12T05:25:58.469Z,20.93
2019-01-12T05:28:28.929Z,22.43
2019-01-12T05:31:02.153Z,25.67
2019-01-12T05:33:33.293Z,23.27
2019-01-12T05:36:04.468Z,21.30
2019-01-12T05:38:34.632Z,17.20
2019-01-12T05:41:08.724Z,51.37
2019-01-12T05:43:42.160Z,20.53
2019-01-12T05:46:12.339Z,15.47
2019-01-12T05:48:43.594Z,17.97
2019-01-12T05:51:15.885Z,17.83
2019-01-12T05:53:47.977Z,18.27
2019-01-12T05:56:21.127Z,11.60
2019-01-12T05:58:51.354Z,14.63
2019-01-12T06:01:24.197Z,15.13
2019-01-12T06:03:55.529Z,14.07
2019-01-12T06:06:26.635Z,12.47
2019-01-12T06:08:56.833Z,14.57
2019-01-12T06:11:31.035Z,14.00
2019-01-12T06:14:04.364Z,11.53
2019-01-12T06:16:37.284Z,13.13
2019-01-12T06:19:08.517Z,14.83
2019-01-12T06:21:39.617Z,13.70
2019-01-12T06:24:11.088Z,14.73
2019-01-12T06:26:42.350Z,8.27
2019-01-12T06:29:16.582Z,10.97
2019-01-12T06:31:47.650Z,15.23
2019-01-12T06:34:19.706Z,10.60
2019-01-12T06:36:51.990Z,12.07
2019-01-12T06:39:23.108Z,15.73
2019-01-12T06:41:54.630Z,10.60
2019-01-12T06:44:28.139Z,12.57
2019-01-12T06:47:01.061Z,14.10
2019-01-12T06:49:31.265Z,15.70
2019-01-12T06:52:02.085Z,25.50
2019-01-12T06:54:36.236Z,15.77
2019-01-12T06:57:08.261Z,18.57
2019-01-12T06:59:39.837Z,17.37
2019-01-12T07:02:10.151Z,15.37
2019-01-12T07:04:40.289Z,21.87
2019-01-12T07:07:11.497Z,19.00
2019-01-12T07:09:42.641Z,23.70
2019-01-12T07:12:13.779Z,18.77
2019-01-12T07:14:46.375Z,22.53
2019-01-12T07:17:17.617Z,21.67
2019-01-12T07:19:49.794Z,25.03
2019-01-12T07:22:20.969Z,24.07
2019-01-12T07:24:50.715Z,30.20
2019-01-12T07:27:24.836Z,25.23
2019-01-12T07:29:57.589Z,27.20
2019-01-12T07:32:30.186Z,25.13
2019-01-12T07:35:02.791Z,24.43
2019-01-12T07:37:33.061Z,22.90
2019-01-12T07:40:03.302Z,26.70
2019-01-12T07:42:34.415Z,28.17
2019-01-12T07:45:06.361Z,23.57
2019-01-12T07:47:38.585Z,24.70
2019-01-12T07:50:12.094Z,19.07
2019-01-12T07:52:43.701Z,27.57
2019-01-12T07:55:17.577Z,26.93
2019-01-12T07:57:48.657Z,26.80
2019-01-12T08:00:21.357Z,25.03
2019-01-12T08:02:52.573Z,18.87
2019-01-12T08:05:23.936Z,23.93
2019-01-12T08:07:54.218Z,26.57
2019-01-12T08:10:26.915Z,29.43
2019-01-12T08:12:59.614Z,25.70
2019-01-12T08:15:31.266Z,27.87
2019-01-12T08:18:02.441Z,24.67
2019-01-12T08:20:36.878Z,29.00
2019-01-12T08:23:07.626Z,26.87
2019-01-12T08:25:38.742Z,28.47
2019-01-12T08:28:10.859Z,30.53
2019-01-12T08:30:42.489Z,28.13
2019-01-12T08:33:15.029Z,28.97
2019-01-12T08:35:46.149Z,29.57
2019-01-12T08:38:17.308Z,34.17
2019-01-12T08:40:48.632Z,31.73
2019-01-12T08:43:19.745Z,30.63
2019-01-12T08:45:50.070Z,29.03
2019-01-12T08:48:21.318Z,31.43
2019-01-12T08:50:52.385Z,24.20
2019-01-12T08:53:22.618Z,32.70
2019-01-12T08:55:55.474Z,28.80
2019-01-12T08:58:27.219Z,31.17
2019-01-12T09:00:58.213Z,34.40
2019-01-12T09:03:28.425Z,36.27
2019-01-12T09:05:59.579Z,29.90
2019-01-12T09:08:32.039Z,33.57
2019-01-12T09:11:03.507Z,31.10
2019-01-12T09:13:34.553Z,32.80
2019-01-12T09:16:05.975Z,35.37
2019-01-12T09:18:38.830Z,32.17
2019-01-12T09:21:09.917Z,33.70
2019-01-12T09:23:41.056Z,30.07
2019-01-12T09:26:11.257Z,32.50
2019-01-12T09:28:41.456Z,33.80
2019-01-12T09:31:11.786Z,32.80
2019-01-12T09:33:42.923Z,33.83
2019-01-12T09:36:14.125Z,34.27
2019-01-12T09:38:44.333Z,32.13
2019-01-12T09:41:14.530Z,32.73
2019-01-12T09:43:44.665Z,34.77
2019-01-12T09:46:14.951Z,33.07
2019-01-12T09:48:44.810Z,33.63
2019-01-12T09:51:15.833Z,35.80
2019-01-12T09:53:47.074Z,33.43
2019-01-12T09:56:19.402Z,35.33
2019-01-12T09:58:49.665Z,30.33
2019-01-12T10:01:20.797Z,32.60
2019-01-12T10:03:53.305Z,33.83
2019-01-12T10:06:24.428Z,31.30
2019-01-12T10:08:54.630Z,34.10
2019-01-12T10:11:25.796Z,30.20
2019-01-12T10:13:57.871Z,33.07
2019-01-12T10:16:30.122Z,34.93
2019-01-12T10:19:01.192Z,34.00
2019-01-12T10:21:31.478Z,33.20
2019-01-12T10:24:02.093Z,27.67
2019-01-12T10:26:34.602Z,40.10
2019-01-12T10:29:04.366Z,31.90
2019-01-12T10:31:35.413Z,32.83
2019-01-12T10:34:06.757Z,36.10
2019-01-12T10:36:37.898Z,33.57
2019-01-12T10:39:08.692Z,32.57
2019-01-12T10:41:38.910Z,35.93
2019-01-12T10:44:09.316Z,28.37
2019-01-12T10:46:40.838Z,35.07
2019-01-12T10:49:11.978Z,33.10
2019-01-12T10:51:43.982Z,33.90
2019-01-12T10:54:16.485Z,38.87
2019-01-12T10:56:47.615Z,37.53
2019-01-12T10:59:20.117Z,41.30
2019-01-12T11:01:50.385Z,43.27
2019-01-12T11:04:22.512Z,40.67
2019-01-12T11:06:53.698Z,37.13
2019-01-12T11:09:25.903Z,43.67
2019-01-12T11:11:56.886Z,40.03
2019-01-12T11:14:27.123Z,44.87
2019-01-12T11:16:58.237Z,43.73
2019-01-12T11:19:29.689Z,41.37
2019-01-12T11:21:59.890Z,38.23
2019-01-12T11:24:32.069Z,31.37
2019-01-12T11:27:02.277Z,39.20
2019-01-12T11:29:33.648Z,41.40
2019-01-12T11:32:06.559Z,40.43
2019-01-12T11:34:38.603Z,41.37
2019-01-12T11:37:12.710Z,44.13
2019-01-12T11:39:43.899Z,41.43
2019-01-12T11:42:15.245Z,38.60
2019-01-12T11:44:47.570Z,44.73
2019-01-12T11:47:18.879Z,40.63
2019-01-12T11:49:50.853Z,32.23
2019-01-12T11:52:22.042Z,43.03
2019-01-12T11:54:53.289Z,38.23
2019-01-12T11:57:26.070Z,41.33
2019-01-12T11:59:57.631Z,28.67
2019-01-12T12:02:27.865Z,37.73
2019-01-12T12:04:59.033Z,31.50
2019-01-12T12:07:29.241Z,35.33
2019-01-12T12:10:00.786Z,36.00
2019-01-12T12:12:31.917Z,37.60
2019-01-12T12:15:02.793Z,39.70
2019-01-12T12:17:32.873Z,42.23
2019-01-12T12:20:07.489Z,39.27
2019-01-12T12:22:39.914Z,39.80
2019-01-12T12:25:12.746Z,37.13
2019-01-12T12:27:44.419Z,35.73
2019-01-12T12:30:18.916Z,39.67
2019-01-12T12:32:51.912Z,26.80
2019-01-12T12:35:23.151Z,31.90
2019-01-12T12:37:55.752Z,37.63
2019-01-12T12:40:28.485Z,34.73
2019-01-12T12:43:01.383Z,32.30
2019-01-12T12:45:31.446Z,31.03
2019-01-12T12:48:02.629Z,34.33
2019-01-12T12:50:35.109Z,34.07
2019-01-12T12:53:07.677Z,30.10
2019-01-12T12:55:40.522Z,31.80
2019-01-12T12:58:11.738Z,28.97
2019-01-12T13:00:41.935Z,30.23
2019-01-12T13:03:13.143Z,29.00
2019-01-12T13:05:43.351Z,32.90
2019-01-12T13:08:15.765Z,32.50
2019-01-12T13:10:47.178Z,28.97
2019-01-12T13:13:17.385Z,28.43
2019-01-12T13:15:51.470Z,32.87
2019-01-12T13:18:21.350Z,30.80
2019-01-12T13:20:53.429Z,30.13
2019-01-12T13:23:23.304Z,28.97
2019-01-12T13:25:54.345Z,29.40
2019-01-12T13:28:25.471Z,22.10
2019-01-12T13:30:55.245Z,30.87
2019-01-12T13:33:26.402Z,29.90
2019-01-12T13:35:56.677Z,32.23
2019-01-12T13:38:26.863Z,30.97
2019-01-12T13:40:59.811Z,27.53
2019-01-12T13:43:31.022Z,36.33
2019-01-12T13:46:01.229Z,31.97
2019-01-12T13:48:32.454Z,24.53
2019-01-12T13:51:02.674Z,29.17
2019-01-12T13:53:34.248Z,27.57
2019-01-12T13:56:04.821Z,28.13
2019-01-12T13:58:38.362Z,26.40
2019-01-12T14:01:10.683Z,26.30
2019-01-12T14:03:41.821Z,27.20
2019-01-12T14:06:14.419Z,23.97
2019-01-12T14:08:45.638Z,24.40
2019-01-12T14:11:16.865Z,24.03
2019-01-12T14:13:48.337Z,18.10
2019-01-12T14:16:19.397Z,22.43
2019-01-12T14:18:52.581Z,23.00
2019-01-12T14:21:22.274Z,22.90
2019-01-12T14:23:52.464Z,21.37
2019-01-12T14:26:22.599Z,18.80
2019-01-12T14:28:55.911Z,20.10
2019-01-12T14:31:27.006Z,19.87
2019-01-12T14:33:57.218Z,16.40
2019-01-12T14:36:29.377Z,14.57
2019-01-12T14:38:59.690Z,15.93
2019-01-12T14:41:31.795Z,17.80
2019-01-12T14:44:04.006Z,17.50
2019-01-12T14:46:34.469Z,15.30
2019-01-12T14:49:05.514Z,16.23
2019-01-12T14:51:36.761Z,16.03
2019-01-12T14:54:07.034Z,16.03
2019-01-12T14:56:38.102Z,14.37
2019-01-12T14:59:12.276Z,13.27
2019-01-12T15:01:43.421Z,14.10
2019-01-12T15:04:13.725Z,13.77
2019-01-12T15:06:45.020Z,15.37
2019-01-12T15:09:15.423Z,14.50
2019-01-12T15:11:47.818Z,16.00
2019-01-12T15:14:19.374Z,13.87
2019-01-12T15:16:49.799Z,12.00
2019-01-12T15:19:23.563Z,13.57
2019-01-12T15:22:05.269Z,13.50
2019-01-12T15:24:38.706Z,12.80
2019-01-12T15:27:09.765Z,13.10
2019-01-12T15:29:40.905Z,14.43
2019-01-12T15:32:12.371Z,13.57
2019-01-12T15:34:44.850Z,16.87
2019-01-12T15:37:17.793Z,16.03
2019-01-12T15:39:50.007Z,15.53
2019-01-12T15:42:21.716Z,17.27
2019-01-12T15:44:54.027Z,14.23
2019-01-12T15:47:24.310Z,14.13
2019-01-12T15:49:54.717Z,14.30
2019-01-12T15:52:26.708Z,14.23
2019-01-12T15:54:56.875Z,14.27
2019-01-12T15:57:27.837Z,13.67
2019-01-12T15:59:59.245Z,15.63
2019-01-12T16:02:31.685Z,14.53
2019-01-12T16:05:02.881Z,17.47
2019-01-12T16:07:33.196Z,14.27
2019-01-12T16:10:04.549Z,14.17
2019-01-12T16:12:35.158Z,12.97
2019-01-12T16:15:11.223Z,12.33
2019-01-12T16:17:43.166Z,11.43
2019-01-12T16:20:21.319Z,13.37
2019-01-12T16:22:51.506Z,13.33
2019-01-12T16:25:22.767Z,16.53
2019-01-12T16:27:56.746Z,15.33
2019-01-12T16:30:29.100Z,16.03
2019-01-12T16:32:59.599Z,19.30
2019-01-12T16:35:30.728Z,18.40
2019-01-12T16:38:03.114Z,20.60
2019-01-12T16:40:37.109Z,17.20
2019-01-12T16:43:10.124Z,18.43
2019-01-12T16:45:40.302Z,18.70
2019-01-12T16:48:11.564Z,18.20
2019-01-12T16:50:42.974Z,18.03
2019-01-12T16:53:15.449Z,17.97
2019-01-12T16:55:46.555Z,27.50
2019-01-12T16:58:18.516Z,29.30
2019-01-12T17:00:48.994Z,35.23
2019-01-12T17:03:21.272Z,33.50
2019-01-12T17:05:51.478Z,30.37
2019-01-12T17:08:21.661Z,24.37
2019-01-12T17:10:52.908Z,18.93
2019-01-12T17:13:26.601Z,17.50
2019-01-12T17:16:01.274Z,17.17
2019-01-12T17:18:35.689Z,17.13
2019-01-12T17:21:06.022Z,87.90
2019-01-12T17:23:37.114Z,16.47
2019-01-12T17:26:07.256Z,20.30
2019-01-12T17:28:37.585Z,23.40
2019-01-12T17:31:09.115Z,16.70
2019-01-12T17:33:39.313Z,17.00
2019-01-12T17:36:10.368Z,17.57
2019-01-12T17:38:43.381Z,15.50
2019-01-12T17:41:14.622Z,11.63
2019-01-12T17:43:44.912Z,18.87
2019-01-12T17:46:15.098Z,15.43
2019-01-12T17:48:45.542Z,14.47
2019-01-12T17:51:16.664Z,14.40
2019-01-12T17:53:48.301Z,20.23
2019-01-12T17:56:19.781Z,18.33
2019-01-12T17:58:52.677Z,17.20
2019-01-12T18:01:24.680Z,16.53
2019-01-12T18:03:55.754Z,20.37
2019-01-12T18:06:26.937Z,16.30
2019-01-12T18:08:57.209Z,11.70
2019-01-12T18:11:29.807Z,18.93
2019-01-12T18:14:00.317Z,17.47
2019-01-12T18:16:31.444Z,19.60
2019-01-12T18:19:02.585Z,20.00
2019-01-12T18:21:33.725Z,23.47
2019-01-12T18:24:06.110Z,15.00
2019-01-12T18:26:36.317Z,18.17
2019-01-12T18:29:07.557Z,18.93
2019-01-12T18:31:39.045Z,14.03
2019-01-12T18:34:12.742Z,14.30
2019-01-12T18:36:44.717Z,14.50
2019-01-12T18:39:14.417Z,17.50
2019-01-12T18:41:44.598Z,12.30
2019-01-12T18:44:15.665Z,15.27
2019-01-12T18:46:46.810Z,17.90
2019-01-12T18:49:18.835Z,14.30
2019-01-12T18:51:50.001Z,16.33
2019-01-12T18:54:21.248Z,19.07
2019-01-12T18:56:51.426Z,18.17
2019-01-12T18:59:21.613Z,16.73
2019-01-12T19:01:54.409Z,26.47
2019-01-12T19:04:25.925Z,19.93
2019-01-12T19:06:57.220Z,17.13
2019-01-12T19:09:31.560Z,19.40
2019-01-12T19:12:01.708Z,16.30
2019-01-12T19:14:32.850Z,20.83
2019-01-12T19:17:02.525Z,20.20
2019-01-12T19:19:33.626Z,16.80
2019-01-12T19:22:06.472Z,20.37
2019-01-12T19:24:40.519Z,17.40
2019-01-12T19:27:10.709Z,20.50
2019-01-12T19:29:41.877Z,21.03
2019-01-12T19:32:12.996Z,24.40
2019-01-12T19:34:44.238Z,20.17
2019-01-12T19:37:15.589Z,25.23
2019-01-12T19:39:45.854Z,24.13
2019-01-12T19:42:19.954Z,22.37
2019-01-12T19:44:51.089Z,23.53
2019-01-12T19:47:23.645Z,22.53
2019-01-12T19:49:55.725Z,27.63
2019-01-12T19:52:26.909Z,22.43
2019-01-12T19:54:58.106Z,22.00
2019-01-12T19:57:28.310Z,18.30
2019-01-12T19:59:58.613Z,22.40
2019-01-12T20:02:30.797Z,18.47
2019-01-12T20:05:02.130Z,16.00
2019-01-12T20:07:34.520Z,21.50
2019-01-12T20:10:08.806Z,18.53
2019-01-12T20:12:38.990Z,20.27
2019-01-12T20:15:14.742Z,16.13
2019-01-12T20:17:46.519Z,21.37
2019-01-12T20:20:19.775Z,18.07
2019-01-12T20:22:50.426Z,18.90
2019-01-12T20:25:27.099Z,20.17
2019-01-12T20:27:57.449Z,18.93
2019-01-12T20:30:46.858Z,20.10
2019-01-12T20:33:34.793Z,21.30
2019-01-12T20:36:20.464Z,18.97
2019-01-12T20:39:06.614Z,17.83
2019-01-12T20:41:54.738Z,18.70
2019-01-12T20:44:32.722Z,16.90
2019-01-12T20:47:35.401Z,17.63
2019-01-12T20:50:14.501Z,19.07
2019-01-12T20:52:50.422Z,22.17
2019-01-12T20:55:25.002Z,20.43
2019-01-12T20:58:06.795Z,23.40
2019-01-12T21:00:58.576Z,23.40
2019-01-12T21:03:37.286Z,20.60
2019-01-12T21:06:16.221Z,26.90
2019-01-12T21:08:54.144Z,31.63
2019-01-12T21:11:34.708Z,36.30
2019-01-12T21:14:24.172Z,35.30
2019-01-12T21:16:55.769Z,37.20
2019-01-12T21:19:27.414Z,35.27
2019-01-12T21:21:58.800Z,26.93
2019-01-12T21:24:29.919Z,22.93
2019-01-12T21:27:03.550Z,24.03
2019-01-12T21:29:35.304Z,28.33
2019-01-12T21:32:06.333Z,28.57
2019-01-12T21:34:37.494Z,24.93
2019-01-12T21:37:11.767Z,29.77
2019-01-12T21:39:44.679Z,22.77
2019-01-12T21:42:15.712Z,24.57
2019-01-12T21:44:46.951Z,19.77
2019-01-12T21:47:18.595Z,21.00
2019-01-12T21:49:50.129Z,23.10
2019-01-12T21:52:20.665Z,20.03
2019-01-12T21:54:51.786Z,22.23
2019-01-12T21:57:25.996Z,20.63
2019-01-12T21:59:56.270Z,19.97
2019-01-12T22:02:27.311Z,18.70
2019-01-12T22:04:57.485Z,22.70
2019-01-12T22:07:28.736Z,17.43
2019-01-12T22:09:59.349Z,24.03
2019-01-12T22:12:30.497Z,21.33
2019-01-12T22:15:00.786Z,19.97
2019-01-12T22:17:33.614Z,20.43
2019-01-12T22:20:10.087Z,19.90
2019-01-12T22:22:42.152Z,24.80
2019-01-12T22:25:14.667Z,19.00
2019-01-12T22:27:45.888Z,20.90
2019-01-12T22:30:19.557Z,21.87
2019-01-12T22:32:52.546Z,23.50
2019-01-12T22:35:22.774Z,20.63
2019-01-12T22:37:54.421Z,22.70
2019-01-12T22:40:24.677Z,24.80
2019-01-12T22:42:56.261Z,22.67
2019-01-12T22:45:27.572Z,21.47
2019-01-12T22:47:58.763Z,31.43
2019-01-12T22:50:28.962Z,19.97
2019-01-12T22:53:00.122Z,24.20
2019-01-12T22:55:32.937Z,24.57
2019-01-12T22:58:03.266Z,27.07
2019-01-12T23:00:39.091Z,26.67
2019-01-12T23:03:09.505Z,29.17
2019-01-12T23:05:39.701Z,29.07
2019-01-12T23:08:10.825Z,24.10
2019-01-12T23:10:43.173Z,22.27
2019-01-12T23:13:14.250Z,25.80
2019-01-12T23:15:45.393Z,19.47
2019-01-12T23:18:15.602Z,24.77
2019-01-12T23:20:45.789Z,26.40
2019-01-12T23:23:16.121Z,23.93
2019-01-12T23:25:48.946Z,24.37
2019-01-12T23:28:20.007Z,23.03
2019-01-12T23:30:52.957Z,21.80
2019-01-12T23:33:27.372Z,23.80
2019-01-12T23:35:58.557Z,26.17
2019-01-12T23:38:29.732Z,25.00
2019-01-12T23:41:01.184Z,27.90
2019-01-12T23:43:33.151Z,23.33
2019-01-12T23:46:03.461Z,27.90
2019-01-12T23:48:33.730Z,24.00
2019-01-12T23:51:08.010Z,22.20
2019-01-12T23:53:39.141Z,21.67
2019-01-12T23:56:11.973Z,16.80
2019-01-12T23:58:42.266Z,25.13
